sensor_id;sensor_type;location;lat;lon;timestamp;temperature;humidity
52413;DHT22;38339;53.234;6.578;2022-08-19T00:00:10;17.80;99.90
52413;DHT22;38339;53.234;6.578;2022-08-19T00:02:36;17.80;99.90
52413;DHT22;38339;53.234;6.578;2022-08-19T00:05:03;17.70;99.90
52413;DHT22;38339;53.234;6.578;2022-08-19T00:07:29;17.70;99.90
52413;DHT22;38339;53.234;6.578;2022-08-19T00:09:55;17.70;99.90
52413;DHT22;38339;53.234;6.578;2022-08-19T00:12:21;17.70;99.90
52413;DHT22;38339;53.234;6.578;2022-08-19T00:14:47;17.60;99.90
52413;DHT22;38339;53.234;6.578;2022-08-19T00:17:12;17.70;99.90
52413;DHT22;38339;53.234;6.578;2022-08-19T00:19:39;17.50;99.90
52413;DHT22;38339;53.234;6.578;2022-08-19T00:22:06;17.40;99.90
52413;DHT22;38339;53.234;6.578;2022-08-19T00:24:34;17.40;99.90
52413;DHT22;38339;53.234;6.578;2022-08-19T00:27:01;17.40;99.90
52413;DHT22;38339;53.234;6.578;2022-08-19T00:29:27;17.40;99.90
52413;DHT22;38339;53.234;6.578;2022-08-19T00:31:53;17.40;99.90
52413;DHT22;38339;53.234;6.578;2022-08-19T00:34:22;17.40;99.90
52413;DHT22;38339;53.234;6.578;2022-08-19T00:36:48;17.40;99.90
52413;DHT22;38339;53.234;6.578;2022-08-19T00:39:16;17.30;99.90
52413;DHT22;38339;53.234;6.578;2022-08-19T00:41:44;17.20;99.90
52413;DHT22;38339;53.234;6.578;2022-08-19T00:44:19;17.10;99.90
52413;DHT22;38339;53.234;6.578;2022-08-19T00:46:47;17.10;99.90
52413;DHT22;38339;53.234;6.578;2022-08-19T00:49:37;17.00;99.90
52413;DHT22;38339;53.234;6.578;2022-08-19T00:52:15;17.00;99.90
52413;DHT22;38339;53.234;6.578;2022-08-19T00:54:41;17.00;99.90
52413;DHT22;38339;53.234;6.578;2022-08-19T00:57:11;17.00;99.90
52413;DHT22;38339;53.234;6.578;2022-08-19T00:59:40;17.00;99.90
52413;DHT22;38339;53.234;6.578;2022-08-19T01:02:06;17.00;99.90
52413;DHT22;38339;53.234;6.578;2022-08-19T01:04:32;17.00;99.90
52413;DHT22;38339;53.234;6.578;2022-08-19T01:06:59;17.00;99.90
52413;DHT22;38339;53.234;6.578;2022-08-19T01:09:25;17.00;99.90
52413;DHT22;38339;53.234;6.578;2022-08-19T01:11:51;17.10;99.90
52413;DHT22;38339;53.234;6.578;2022-08-19T01:14:18;17.10;99.90
52413;DHT22;38339;53.234;6.578;2022-08-19T01:16:45;17.10;99.90
52413;DHT22;38339;53.234;6.578;2022-08-19T01:19:18;17.10;99.90
52413;DHT22;38339;53.234;6.578;2022-08-19T01:21:57;17.20;99.90
52413;DHT22;38339;53.234;6.578;2022-08-19T01:24:26;17.10;99.90
52413;DHT22;38339;53.234;6.578;2022-08-19T01:26:52;17.10;99.90
52413;DHT22;38339;53.234;6.578;2022-08-19T01:29:18;17.00;99.90
52413;DHT22;38339;53.234;6.578;2022-08-19T01:31:44;17.00;99.90
52413;DHT22;38339;53.234;6.578;2022-08-19T01:34:09;17.10;99.90
52413;DHT22;38339;53.234;6.578;2022-08-19T01:36:39;17.00;99.90
52413;DHT22;38339;53.234;6.578;2022-08-19T01:39:11;17.10;99.90
52413;DHT22;38339;53.234;6.578;2022-08-19T01:41:39;17.10;99.90
52413;DHT22;38339;53.234;6.578;2022-08-19T01:44:07;17.10;99.90
52413;DHT22;38339;53.234;6.578;2022-08-19T01:46:33;17.10;99.90
52413;DHT22;38339;53.234;6.578;2022-08-19T01:48:59;17.10;99.90
52413;DHT22;38339;53.234;6.578;2022-08-19T01:51:26;17.10;99.90
52413;DHT22;38339;53.234;6.578;2022-08-19T01:53:53;17.10;99.90
52413;DHT22;38339;53.234;6.578;2022-08-19T01:56:19;17.20;99.90
52413;DHT22;38339;53.234;6.578;2022-08-19T01:58:51;17.20;99.90
52413;DHT22;38339;53.234;6.578;2022-08-19T02:01:19;17.20;99.90
52413;DHT22;38339;53.234;6.578;2022-08-19T02:03:45;17.20;99.90
52413;DHT22;38339;53.234;6.578;2022-08-19T02:06:11;17.20;99.90
52413;DHT22;38339;53.234;6.578;2022-08-19T02:08:38;17.20;99.90
52413;DHT22;38339;53.234;6.578;2022-08-19T02:11:05;17.20;99.90
52413;DHT22;38339;53.234;6.578;2022-08-19T02:13:31;17.20;99.90
52413;DHT22;38339;53.234;6.578;2022-08-19T02:15:57;17.20;99.90
52413;DHT22;38339;53.234;6.578;2022-08-19T02:18:23;17.20;99.90
52413;DHT22;38339;53.234;6.578;2022-08-19T02:20:49;17.20;99.90
52413;DHT22;38339;53.234;6.578;2022-08-19T02:23:15;17.20;99.90
52413;DHT22;38339;53.234;6.578;2022-08-19T02:25:44;17.20;99.90
52413;DHT22;38339;53.234;6.578;2022-08-19T02:28:10;17.20;99.90
52413;DHT22;38339;53.234;6.578;2022-08-19T02:30:37;17.20;99.90
52413;DHT22;38339;53.234;6.578;2022-08-19T02:33:03;17.20;99.90
52413;DHT22;38339;53.234;6.578;2022-08-19T02:35:30;17.20;99.90
52413;DHT22;38339;53.234;6.578;2022-08-19T02:37:56;17.20;99.90
52413;DHT22;38339;53.234;6.578;2022-08-19T02:40:40;17.20;99.90
52413;DHT22;38339;53.234;6.578;2022-08-19T02:43:07;17.30;99.90
52413;DHT22;38339;53.234;6.578;2022-08-19T02:45:35;17.20;99.90
52413;DHT22;38339;53.234;6.578;2022-08-19T02:48:02;17.30;99.90
52413;DHT22;38339;53.234;6.578;2022-08-19T02:50:29;17.20;99.90
52413;DHT22;38339;53.234;6.578;2022-08-19T02:52:55;17.20;99.90
52413;DHT22;38339;53.234;6.578;2022-08-19T02:55:21;17.20;99.90
52413;DHT22;38339;53.234;6.578;2022-08-19T02:57:47;17.20;99.90
52413;DHT22;38339;53.234;6.578;2022-08-19T03:00:13;17.20;99.90
52413;DHT22;38339;53.234;6.578;2022-08-19T03:02:40;17.20;99.90
52413;DHT22;38339;53.234;6.578;2022-08-19T03:05:08;17.20;99.90
52413;DHT22;38339;53.234;6.578;2022-08-19T03:07:35;17.20;99.90
52413;DHT22;38339;53.234;6.578;2022-08-19T03:10:02;17.20;99.90
52413;DHT22;38339;53.234;6.578;2022-08-19T03:12:28;17.20;99.90
52413;DHT22;38339;53.234;6.578;2022-08-19T03:14:53;17.20;99.90
52413;DHT22;38339;53.234;6.578;2022-08-19T03:17:22;17.10;99.90
52413;DHT22;38339;53.234;6.578;2022-08-19T03:19:48;17.10;99.90
52413;DHT22;38339;53.234;6.578;2022-08-19T03:22:14;17.00;99.90
52413;DHT22;38339;53.234;6.578;2022-08-19T03:24:40;17.00;99.90
52413;DHT22;38339;53.234;6.578;2022-08-19T03:27:05;17.10;99.90
52413;DHT22;38339;53.234;6.578;2022-08-19T03:29:32;17.00;99.90
52413;DHT22;38339;53.234;6.578;2022-08-19T03:32:03;17.00;99.90
52413;DHT22;38339;53.234;6.578;2022-08-19T03:34:30;17.10;99.90
52413;DHT22;38339;53.234;6.578;2022-08-19T03:36:59;17.00;99.90
52413;DHT22;38339;53.234;6.578;2022-08-19T03:39:27;17.00;99.90
52413;DHT22;38339;53.234;6.578;2022-08-19T03:41:54;17.00;99.90
52413;DHT22;38339;53.234;6.578;2022-08-19T03:44:22;17.00;99.90
52413;DHT22;38339;53.234;6.578;2022-08-19T03:46:54;17.00;99.90
52413;DHT22;38339;53.234;6.578;2022-08-19T03:49:30;17.00;99.90
52413;DHT22;38339;53.234;6.578;2022-08-19T03:51:58;16.90;99.90
52413;DHT22;38339;53.234;6.578;2022-08-19T03:54:26;17.00;99.90
52413;DHT22;38339;53.234;6.578;2022-08-19T03:56:53;16.90;99.90
52413;DHT22;38339;53.234;6.578;2022-08-19T03:59:32;17.00;99.90
52413;DHT22;38339;53.234;6.578;2022-08-19T04:02:00;17.00;99.90
52413;DHT22;38339;53.234;6.578;2022-08-19T04:04:26;17.00;99.90
52413;DHT22;38339;53.234;6.578;2022-08-19T04:06:52;17.00;99.90
52413;DHT22;38339;53.234;6.578;2022-08-19T04:09:19;17.00;99.90
52413;DHT22;38339;53.234;6.578;2022-08-19T04:11:51;17.00;99.90
52413;DHT22;38339;53.234;6.578;2022-08-19T04:14:22;17.00;99.90
52413;DHT22;38339;53.234;6.578;2022-08-19T04:16:49;17.00;99.90
52413;DHT22;38339;53.234;6.578;2022-08-19T04:19:16;17.00;99.90
52413;DHT22;38339;53.234;6.578;2022-08-19T04:21:44;17.00;99.90
52413;DHT22;38339;53.234;6.578;2022-08-19T04:24:11;17.00;99.90
52413;DHT22;38339;53.234;6.578;2022-08-19T04:26:37;17.00;99.90
52413;DHT22;38339;53.234;6.578;2022-08-19T04:29:15;17.10;99.90
52413;DHT22;38339;53.234;6.578;2022-08-19T04:31:43;17.10;99.90
52413;DHT22;38339;53.234;6.578;2022-08-19T04:34:11;17.10;99.90
52413;DHT22;38339;53.234;6.578;2022-08-19T04:36:39;17.10;99.90
52413;DHT22;38339;53.234;6.578;2022-08-19T04:39:12;17.10;99.90
52413;DHT22;38339;53.234;6.578;2022-08-19T04:41:38;17.10;99.90
52413;DHT22;38339;53.234;6.578;2022-08-19T04:44:23;17.10;99.90
52413;DHT22;38339;53.234;6.578;2022-08-19T04:46:50;17.10;99.90
52413;DHT22;38339;53.234;6.578;2022-08-19T04:49:22;17.10;99.90
52413;DHT22;38339;53.234;6.578;2022-08-19T04:51:50;17.00;99.90
52413;DHT22;38339;53.234;6.578;2022-08-19T04:54:18;17.10;99.90
52413;DHT22;38339;53.234;6.578;2022-08-19T04:56:48;17.10;99.90
52413;DHT22;38339;53.234;6.578;2022-08-19T04:59:15;17.00;99.90
52413;DHT22;38339;53.234;6.578;2022-08-19T05:01:42;17.00;99.90
52413;DHT22;38339;53.234;6.578;2022-08-19T05:04:09;17.00;99.90
52413;DHT22;38339;53.234;6.578;2022-08-19T05:06:36;17.00;99.90
52413;DHT22;38339;53.234;6.578;2022-08-19T05:09:05;17.00;99.90
52413;DHT22;38339;53.234;6.578;2022-08-19T05:11:34;17.00;99.90
52413;DHT22;38339;53.234;6.578;2022-08-19T05:14:00;17.00;99.90
52413;DHT22;38339;53.234;6.578;2022-08-19T05:16:27;17.00;99.90
52413;DHT22;38339;53.234;6.578;2022-08-19T05:18:53;17.00;99.90
52413;DHT22;38339;53.234;6.578;2022-08-19T05:21:40;17.00;99.90
52413;DHT22;38339;53.234;6.578;2022-08-19T05:24:24;17.00;99.90
52413;DHT22;38339;53.234;6.578;2022-08-19T05:26:52;17.00;99.90
52413;DHT22;38339;53.234;6.578;2022-08-19T05:29:20;17.00;99.90
52413;DHT22;38339;53.234;6.578;2022-08-19T05:31:47;17.00;99.90
52413;DHT22;38339;53.234;6.578;2022-08-19T05:34:15;17.10;99.90
52413;DHT22;38339;53.234;6.578;2022-08-19T05:36:44;17.10;99.90
52413;DHT22;38339;53.234;6.578;2022-08-19T05:39:13;17.20;99.90
52413;DHT22;38339;53.234;6.578;2022-08-19T05:41:45;17.10;99.90
52413;DHT22;38339;53.234;6.578;2022-08-19T05:44:12;17.20;99.90
52413;DHT22;38339;53.234;6.578;2022-08-19T05:46:38;17.20;99.90
52413;DHT22;38339;53.234;6.578;2022-08-19T05:49:08;17.30;99.90
52413;DHT22;38339;53.234;6.578;2022-08-19T05:51:35;17.30;99.90
52413;DHT22;38339;53.234;6.578;2022-08-19T05:54:04;17.30;99.90
52413;DHT22;38339;53.234;6.578;2022-08-19T05:56:30;17.40;99.90
52413;DHT22;38339;53.234;6.578;2022-08-19T05:58:56;17.50;99.90
52413;DHT22;38339;53.234;6.578;2022-08-19T06:01:22;17.50;99.90
52413;DHT22;38339;53.234;6.578;2022-08-19T06:03:47;17.60;99.90
52413;DHT22;38339;53.234;6.578;2022-08-19T06:06:16;17.60;99.90
52413;DHT22;38339;53.234;6.578;2022-08-19T06:08:43;17.60;99.90
52413;DHT22;38339;53.234;6.578;2022-08-19T06:11:23;17.70;99.90
52413;DHT22;38339;53.234;6.578;2022-08-19T06:13:52;17.70;99.90
52413;DHT22;38339;53.234;6.578;2022-08-19T06:16:21;17.70;99.90
52413;DHT22;38339;53.234;6.578;2022-08-19T06:18:55;17.80;99.90
52413;DHT22;38339;53.234;6.578;2022-08-19T06:21:24;17.90;99.90
52413;DHT22;38339;53.234;6.578;2022-08-19T06:23:53;17.90;99.90
52413;DHT22;38339;53.234;6.578;2022-08-19T06:26:20;17.90;99.90
52413;DHT22;38339;53.234;6.578;2022-08-19T06:28:47;17.90;99.90
52413;DHT22;38339;53.234;6.578;2022-08-19T06:31:18;18.00;99.90
52413;DHT22;38339;53.234;6.578;2022-08-19T06:33:46;18.00;99.90
52413;DHT22;38339;53.234;6.578;2022-08-19T06:36:25;18.10;99.90
52413;DHT22;38339;53.234;6.578;2022-08-19T06:38:58;18.10;99.90
52413;DHT22;38339;53.234;6.578;2022-08-19T06:41:28;18.20;99.90
52413;DHT22;38339;53.234;6.578;2022-08-19T06:43:54;18.20;99.90
52413;DHT22;38339;53.234;6.578;2022-08-19T06:46:20;18.30;99.90
52413;DHT22;38339;53.234;6.578;2022-08-19T06:48:46;18.30;99.90
52413;DHT22;38339;53.234;6.578;2022-08-19T06:51:14;18.40;99.90
52413;DHT22;38339;53.234;6.578;2022-08-19T06:53:43;18.50;99.90
52413;DHT22;38339;53.234;6.578;2022-08-19T06:56:14;18.50;99.90
52413;DHT22;38339;53.234;6.578;2022-08-19T06:58:40;18.60;99.90
52413;DHT22;38339;53.234;6.578;2022-08-19T07:01:07;18.60;99.90
52413;DHT22;38339;53.234;6.578;2022-08-19T07:03:34;18.70;99.90
52413;DHT22;38339;53.234;6.578;2022-08-19T07:06:11;18.70;99.90
52413;DHT22;38339;53.234;6.578;2022-08-19T07:08:38;18.80;99.90
52413;DHT22;38339;53.234;6.578;2022-08-19T07:11:09;18.80;99.90
52413;DHT22;38339;53.234;6.578;2022-08-19T07:13:37;18.90;99.90
52413;DHT22;38339;53.234;6.578;2022-08-19T07:16:07;19.00;99.90
52413;DHT22;38339;53.234;6.578;2022-08-19T07:18:34;19.00;99.90
52413;DHT22;38339;53.234;6.578;2022-08-19T07:21:05;19.10;99.90
52413;DHT22;38339;53.234;6.578;2022-08-19T07:23:31;19.10;99.90
52413;DHT22;38339;53.234;6.578;2022-08-19T07:25:57;19.20;99.90
52413;DHT22;38339;53.234;6.578;2022-08-19T07:28:22;19.20;99.90
52413;DHT22;38339;53.234;6.578;2022-08-19T07:30:49;19.30;99.90
52413;DHT22;38339;53.234;6.578;2022-08-19T07:33:16;19.40;99.90
52413;DHT22;38339;53.234;6.578;2022-08-19T07:35:43;19.40;99.90
52413;DHT22;38339;53.234;6.578;2022-08-19T07:38:09;19.40;99.90
52413;DHT22;38339;53.234;6.578;2022-08-19T07:40:35;19.50;99.90
52413;DHT22;38339;53.234;6.578;2022-08-19T07:43:01;19.60;99.90
52413;DHT22;38339;53.234;6.578;2022-08-19T07:45:27;19.70;99.90
52413;DHT22;38339;53.234;6.578;2022-08-19T07:47:55;19.80;99.90
52413;DHT22;38339;53.234;6.578;2022-08-19T07:50:21;19.80;99.90
52413;DHT22;38339;53.234;6.578;2022-08-19T07:52:48;19.90;99.90
52413;DHT22;38339;53.234;6.578;2022-08-19T07:55:16;20.00;99.90
52413;DHT22;38339;53.234;6.578;2022-08-19T07:57:42;20.10;99.90
52413;DHT22;38339;53.234;6.578;2022-08-19T08:00:08;20.10;99.90
52413;DHT22;38339;53.234;6.578;2022-08-19T08:02:34;20.10;99.90
52413;DHT22;38339;53.234;6.578;2022-08-19T08:04:59;20.20;99.90
52413;DHT22;38339;53.234;6.578;2022-08-19T08:07:43;20.30;99.90
52413;DHT22;38339;53.234;6.578;2022-08-19T08:10:27;20.40;99.90
52413;DHT22;38339;53.234;6.578;2022-08-19T08:12:53;20.50;99.90
52413;DHT22;38339;53.234;6.578;2022-08-19T08:15:22;20.50;99.90
52413;DHT22;38339;53.234;6.578;2022-08-19T08:17:48;20.60;99.90
52413;DHT22;38339;53.234;6.578;2022-08-19T08:20:14;20.60;99.90
52413;DHT22;38339;53.234;6.578;2022-08-19T08:22:45;20.70;99.90
52413;DHT22;38339;53.234;6.578;2022-08-19T08:25:30;20.80;99.90
52413;DHT22;38339;53.234;6.578;2022-08-19T08:27:57;20.90;99.90
52413;DHT22;38339;53.234;6.578;2022-08-19T08:30:27;21.00;99.90
52413;DHT22;38339;53.234;6.578;2022-08-19T08:32:54;21.00;99.90
52413;DHT22;38339;53.234;6.578;2022-08-19T08:35:21;21.00;99.90
52413;DHT22;38339;53.234;6.578;2022-08-19T08:37:49;21.10;99.90
52413;DHT22;38339;53.234;6.578;2022-08-19T08:45:34;21.40;99.90
52413;DHT22;38339;53.234;6.578;2022-08-19T08:48:07;21.50;99.90
52413;DHT22;38339;53.234;6.578;2022-08-19T08:50:41;21.50;99.90
52413;DHT22;38339;53.234;6.578;2022-08-19T08:53:08;21.60;99.90
52413;DHT22;38339;53.234;6.578;2022-08-19T08:55:36;21.60;99.90
52413;DHT22;38339;53.234;6.578;2022-08-19T08:58:12;21.70;99.90
52413;DHT22;38339;53.234;6.578;2022-08-19T09:00:45;21.80;99.90
52413;DHT22;38339;53.234;6.578;2022-08-19T09:03:24;21.80;99.90
52413;DHT22;38339;53.234;6.578;2022-08-19T09:10:55;21.90;99.90
52413;DHT22;38339;53.234;6.578;2022-08-19T09:13:31;21.90;99.90
52413;DHT22;38339;53.234;6.578;2022-08-19T09:18:43;22.00;99.90
52413;DHT22;38339;53.234;6.578;2022-08-19T09:21:10;22.00;99.90
52413;DHT22;38339;53.234;6.578;2022-08-19T09:23:37;22.00;99.90
52413;DHT22;38339;53.234;6.578;2022-08-19T09:26:14;22.10;99.90
52413;DHT22;38339;53.234;6.578;2022-08-19T09:28:41;22.20;99.90
52413;DHT22;38339;53.234;6.578;2022-08-19T09:31:10;22.30;99.90
52413;DHT22;38339;53.234;6.578;2022-08-19T09:33:36;22.40;99.90
52413;DHT22;38339;53.234;6.578;2022-08-19T09:36:10;22.40;99.90
52413;DHT22;38339;53.234;6.578;2022-08-19T09:38:37;22.50;99.90
52413;DHT22;38339;53.234;6.578;2022-08-19T09:41:19;22.50;99.90
52413;DHT22;38339;53.234;6.578;2022-08-19T09:43:47;22.60;99.90
52413;DHT22;38339;53.234;6.578;2022-08-19T09:46:17;22.60;99.90
52413;DHT22;38339;53.234;6.578;2022-08-19T09:48:44;22.60;99.90
52413;DHT22;38339;53.234;6.578;2022-08-19T09:51:15;22.70;99.90
52413;DHT22;38339;53.234;6.578;2022-08-19T09:53:43;22.80;99.90
52413;DHT22;38339;53.234;6.578;2022-08-19T09:56:09;22.80;99.90
52413;DHT22;38339;53.234;6.578;2022-08-19T09:58:36;22.90;99.90
52413;DHT22;38339;53.234;6.578;2022-08-19T10:01:03;23.00;99.90
52413;DHT22;38339;53.234;6.578;2022-08-19T10:03:31;23.00;99.90
52413;DHT22;38339;53.234;6.578;2022-08-19T10:05:59;23.00;99.90
52413;DHT22;38339;53.234;6.578;2022-08-19T10:08:29;23.00;99.90
52413;DHT22;38339;53.234;6.578;2022-08-19T10:10:56;23.10;99.90
52413;DHT22;38339;53.234;6.578;2022-08-19T10:13:24;23.10;99.90
52413;DHT22;38339;53.234;6.578;2022-08-19T10:15:57;23.10;99.90
52413;DHT22;38339;53.234;6.578;2022-08-19T10:18:27;23.10;99.90
52413;DHT22;38339;53.234;6.578;2022-08-19T10:21:15;23.10;99.90
52413;DHT22;38339;53.234;6.578;2022-08-19T10:23:45;23.10;99.90
52413;DHT22;38339;53.234;6.578;2022-08-19T10:26:15;23.20;99.90
52413;DHT22;38339;53.234;6.578;2022-08-19T10:28:42;23.30;99.90
52413;DHT22;38339;53.234;6.578;2022-08-19T10:31:16;23.30;99.90
52413;DHT22;38339;53.234;6.578;2022-08-19T10:33:43;23.40;99.90
52413;DHT22;38339;53.234;6.578;2022-08-19T10:36:15;23.40;99.90
52413;DHT22;38339;53.234;6.578;2022-08-19T10:38:43;23.40;99.90
52413;DHT22;38339;53.234;6.578;2022-08-19T10:41:17;23.40;99.90
52413;DHT22;38339;53.234;6.578;2022-08-19T10:43:44;23.50;99.90
52413;DHT22;38339;53.234;6.578;2022-08-19T10:46:13;23.50;99.90
52413;DHT22;38339;53.234;6.578;2022-08-19T10:48:39;23.70;99.90
52413;DHT22;38339;53.234;6.578;2022-08-19T10:51:05;23.80;99.90
52413;DHT22;38339;53.234;6.578;2022-08-19T10:53:50;23.90;99.90
52413;DHT22;38339;53.234;6.578;2022-08-19T10:56:16;24.00;99.90
52413;DHT22;38339;53.234;6.578;2022-08-19T10:59:00;24.00;99.90
52413;DHT22;38339;53.234;6.578;2022-08-19T11:01:30;24.10;99.90
52413;DHT22;38339;53.234;6.578;2022-08-19T11:03:56;24.20;99.90
52413;DHT22;38339;53.234;6.578;2022-08-19T11:06:23;24.20;99.90
52413;DHT22;38339;53.234;6.578;2022-08-19T11:08:51;24.30;99.90
52413;DHT22;38339;53.234;6.578;2022-08-19T11:11:17;24.40;99.90
52413;DHT22;38339;53.234;6.578;2022-08-19T11:13:43;24.50;99.90
52413;DHT22;38339;53.234;6.578;2022-08-19T11:16:18;24.60;99.90
52413;DHT22;38339;53.234;6.578;2022-08-19T11:18:47;24.60;99.90
52413;DHT22;38339;53.234;6.578;2022-08-19T11:21:25;24.70;99.90
52413;DHT22;38339;53.234;6.578;2022-08-19T11:23:56;24.70;99.90
52413;DHT22;38339;53.234;6.578;2022-08-19T11:26:23;24.60;99.90
52413;DHT22;38339;53.234;6.578;2022-08-19T11:28:49;24.60;99.90
52413;DHT22;38339;53.234;6.578;2022-08-19T11:31:20;24.60;99.90
52413;DHT22;38339;53.234;6.578;2022-08-19T11:33:46;24.60;99.90
52413;DHT22;38339;53.234;6.578;2022-08-19T11:36:16;24.60;99.90
52413;DHT22;38339;53.234;6.578;2022-08-19T11:38:42;24.80;99.90
52413;DHT22;38339;53.234;6.578;2022-08-19T11:41:08;24.90;99.90
52413;DHT22;38339;53.234;6.578;2022-08-19T11:43:35;25.00;99.90
52413;DHT22;38339;53.234;6.578;2022-08-19T11:46:10;25.00;99.90
52413;DHT22;38339;53.234;6.578;2022-08-19T11:48:37;25.10;99.90
52413;DHT22;38339;53.234;6.578;2022-08-19T11:51:05;25.10;99.90
52413;DHT22;38339;53.234;6.578;2022-08-19T11:53:33;25.00;99.90
52413;DHT22;38339;53.234;6.578;2022-08-19T11:55:59;25.00;99.90
52413;DHT22;38339;53.234;6.578;2022-08-19T11:58:25;25.00;99.90
52413;DHT22;38339;53.234;6.578;2022-08-19T12:00:52;25.00;99.90
52413;DHT22;38339;53.234;6.578;2022-08-19T12:03:18;24.90;99.90
52413;DHT22;38339;53.234;6.578;2022-08-19T12:05:45;25.00;99.90
52413;DHT22;38339;53.234;6.578;2022-08-19T12:08:11;25.00;99.90
52413;DHT22;38339;53.234;6.578;2022-08-19T12:10:38;25.10;99.90
52413;DHT22;38339;53.234;6.578;2022-08-19T12:13:05;25.10;99.90
52413;DHT22;38339;53.234;6.578;2022-08-19T12:15:36;25.10;99.90
52413;DHT22;38339;53.234;6.578;2022-08-19T12:18:03;25.10;99.90
52413;DHT22;38339;53.234;6.578;2022-08-19T12:20:29;25.10;99.90
52413;DHT22;38339;53.234;6.578;2022-08-19T12:22:55;25.10;99.90
52413;DHT22;38339;53.234;6.578;2022-08-19T12:25:21;25.10;99.90
52413;DHT22;38339;53.234;6.578;2022-08-19T12:27:47;25.20;99.90
52413;DHT22;38339;53.234;6.578;2022-08-19T12:30:13;25.20;99.90
52413;DHT22;38339;53.234;6.578;2022-08-19T12:32:39;25.30;99.90
52413;DHT22;38339;53.234;6.578;2022-08-19T12:35:06;25.30;99.90
52413;DHT22;38339;53.234;6.578;2022-08-19T12:37:33;25.30;99.90
52413;DHT22;38339;53.234;6.578;2022-08-19T12:39:59;25.30;99.90
52413;DHT22;38339;53.234;6.578;2022-08-19T12:42:25;25.30;99.90
52413;DHT22;38339;53.234;6.578;2022-08-19T12:44:52;25.30;99.90
52413;DHT22;38339;53.234;6.578;2022-08-19T12:47:18;25.30;99.90
52413;DHT22;38339;53.234;6.578;2022-08-19T12:49:43;25.30;99.90
52413;DHT22;38339;53.234;6.578;2022-08-19T12:52:10;25.30;99.90
52413;DHT22;38339;53.234;6.578;2022-08-19T12:54:37;25.30;99.90
52413;DHT22;38339;53.234;6.578;2022-08-19T12:57:07;25.30;99.90
52413;DHT22;38339;53.234;6.578;2022-08-19T12:59:35;25.20;99.90
52413;DHT22;38339;53.234;6.578;2022-08-19T13:02:02;25.20;99.90
52413;DHT22;38339;53.234;6.578;2022-08-19T13:04:29;25.20;99.90
52413;DHT22;38339;53.234;6.578;2022-08-19T13:06:54;25.20;99.90
52413;DHT22;38339;53.234;6.578;2022-08-19T13:09:20;25.10;99.90
52413;DHT22;38339;53.234;6.578;2022-08-19T13:11:46;25.10;99.90
52413;DHT22;38339;53.234;6.578;2022-08-19T13:14:11;25.00;99.90
52413;DHT22;38339;53.234;6.578;2022-08-19T13:16:37;25.00;99.90
52413;DHT22;38339;53.234;6.578;2022-08-19T13:19:04;25.00;99.90
52413;DHT22;38339;53.234;6.578;2022-08-19T13:21:30;25.00;99.90
52413;DHT22;38339;53.234;6.578;2022-08-19T13:23:57;25.00;99.90
52413;DHT22;38339;53.234;6.578;2022-08-19T13:26:23;25.00;99.90
52413;DHT22;38339;53.234;6.578;2022-08-19T13:28:49;25.10;99.90
52413;DHT22;38339;53.234;6.578;2022-08-19T13:31:35;25.10;99.90
52413;DHT22;38339;53.234;6.578;2022-08-19T13:34:28;25.00;99.90
52413;DHT22;38339;53.234;6.578;2022-08-19T13:36:55;25.00;99.90
52413;DHT22;38339;53.234;6.578;2022-08-19T13:39:21;24.90;99.90
52413;DHT22;38339;53.234;6.578;2022-08-19T13:41:48;24.90;99.90
52413;DHT22;38339;53.234;6.578;2022-08-19T13:44:16;24.60;99.90
52413;DHT22;38339;53.234;6.578;2022-08-19T13:46:44;24.50;99.90
52413;DHT22;38339;53.234;6.578;2022-08-19T13:49:12;24.40;99.90
52413;DHT22;38339;53.234;6.578;2022-08-19T13:51:41;24.40;99.90
52413;DHT22;38339;53.234;6.578;2022-08-19T13:54:09;24.40;99.90
52413;DHT22;38339;53.234;6.578;2022-08-19T13:56:40;24.30;99.90
52413;DHT22;38339;53.234;6.578;2022-08-19T13:59:06;24.20;99.90
52413;DHT22;38339;53.234;6.578;2022-08-19T14:01:32;24.10;99.90
52413;DHT22;38339;53.234;6.578;2022-08-19T14:03:57;24.00;99.90
52413;DHT22;38339;53.234;6.578;2022-08-19T14:06:23;24.00;99.90
52413;DHT22;38339;53.234;6.578;2022-08-19T14:08:49;24.00;99.90
52413;DHT22;38339;53.234;6.578;2022-08-19T14:11:15;24.00;99.90
52413;DHT22;38339;53.234;6.578;2022-08-19T14:13:42;24.10;99.90
52413;DHT22;38339;53.234;6.578;2022-08-19T14:16:13;24.20;99.90
52413;DHT22;38339;53.234;6.578;2022-08-19T14:18:39;24.30;99.90
52413;DHT22;38339;53.234;6.578;2022-08-19T14:21:05;24.30;99.90
52413;DHT22;38339;53.234;6.578;2022-08-19T14:23:32;24.30;99.90
52413;DHT22;38339;53.234;6.578;2022-08-19T14:26:11;24.20;99.90
52413;DHT22;38339;53.234;6.578;2022-08-19T14:28:37;24.20;99.90
52413;DHT22;38339;53.234;6.578;2022-08-19T14:31:04;24.20;99.90
52413;DHT22;38339;53.234;6.578;2022-08-19T14:33:30;24.20;99.90
52413;DHT22;38339;53.234;6.578;2022-08-19T14:35:57;24.30;99.90
52413;DHT22;38339;53.234;6.578;2022-08-19T14:38:23;24.40;99.90
52413;DHT22;38339;53.234;6.578;2022-08-19T14:40:48;24.40;99.90
52413;DHT22;38339;53.234;6.578;2022-08-19T14:43:14;24.50;99.90
52413;DHT22;38339;53.234;6.578;2022-08-19T14:45:40;24.60;99.90
52413;DHT22;38339;53.234;6.578;2022-08-19T14:48:07;24.70;99.90
52413;DHT22;38339;53.234;6.578;2022-08-19T14:50:34;24.70;99.90
52413;DHT22;38339;53.234;6.578;2022-08-19T14:53:02;24.70;99.90
52413;DHT22;38339;53.234;6.578;2022-08-19T14:55:30;24.70;99.90
52413;DHT22;38339;53.234;6.578;2022-08-19T14:57:56;24.60;99.90
52413;DHT22;38339;53.234;6.578;2022-08-19T15:00:22;24.60;99.90
52413;DHT22;38339;53.234;6.578;2022-08-19T15:02:51;24.60;99.90
52413;DHT22;38339;53.234;6.578;2022-08-19T15:05:18;24.60;99.90
52413;DHT22;38339;53.234;6.578;2022-08-19T15:07:44;24.60;99.90
52413;DHT22;38339;53.234;6.578;2022-08-19T15:10:11;24.70;99.90
52413;DHT22;38339;53.234;6.578;2022-08-19T15:12:38;24.70;99.90
52413;DHT22;38339;53.234;6.578;2022-08-19T15:15:07;24.70;99.90
52413;DHT22;38339;53.234;6.578;2022-08-19T15:17:33;24.70;99.90
52413;DHT22;38339;53.234;6.578;2022-08-19T15:19:58;24.90;99.90
52413;DHT22;38339;53.234;6.578;2022-08-19T15:22:24;25.00;99.90
52413;DHT22;38339;53.234;6.578;2022-08-19T15:24:50;25.30;99.90
52413;DHT22;38339;53.234;6.578;2022-08-19T15:27:16;25.50;99.90
52413;DHT22;38339;53.234;6.578;2022-08-19T15:29:41;25.90;99.90
52413;DHT22;38339;53.234;6.578;2022-08-19T15:32:07;26.50;99.90
52413;DHT22;38339;53.234;6.578;2022-08-19T15:34:34;27.50;99.90
52413;DHT22;38339;53.234;6.578;2022-08-19T15:37:01;27.90;99.90
52413;DHT22;38339;53.234;6.578;2022-08-19T15:39:28;27.80;99.90
52413;DHT22;38339;53.234;6.578;2022-08-19T15:41:55;27.90;99.90
52413;DHT22;38339;53.234;6.578;2022-08-19T15:44:21;28.00;99.90
52413;DHT22;38339;53.234;6.578;2022-08-19T15:46:48;27.80;99.90
52413;DHT22;38339;53.234;6.578;2022-08-19T15:49:16;27.30;99.90